sensor_id;sensor_type;location;lat;lon;timestamp;temperature;humidity
25554;DHT22;13446;50.926;5.332;2023-02-02T00:00:38;9.50;99.90
25554;DHT22;13446;50.926;5.332;2023-02-02T00:03:03;9.40;99.90
25554;DHT22;13446;50.926;5.332;2023-02-02T00:05:29;9.50;99.90
25554;DHT22;13446;50.926;5.332;2023-02-02T00:07:56;9.30;99.90
25554;DHT22;13446;50.926;5.332;2023-02-02T00:10:23;9.30;99.90
25554;DHT22;13446;50.926;5.332;2023-02-02T00:12:48;9.40;99.90
25554;DHT22;13446;50.926;5.332;2023-02-02T00:15:14;9.40;99.90
25554;DHT22;13446;50.926;5.332;2023-02-02T00:17:39;9.50;99.90
25554;DHT22;13446;50.926;5.332;2023-02-02T00:20:05;9.50;99.90
25554;DHT22;13446;50.926;5.332;2023-02-02T00:22:31;9.50;99.90
25554;DHT22;13446;50.926;5.332;2023-02-02T00:24:56;9.40;99.90
25554;DHT22;13446;50.926;5.332;2023-02-02T00:27:22;9.40;99.90
25554;DHT22;13446;50.926;5.332;2023-02-02T00:29:47;9.50;99.90
25554;DHT22;13446;50.926;5.332;2023-02-02T00:32:18;9.40;99.90
25554;DHT22;13446;50.926;5.332;2023-02-02T00:34:43;9.50;99.90
25554;DHT22;13446;50.926;5.332;2023-02-02T00:37:09;9.50;99.90
25554;DHT22;13446;50.926;5.332;2023-02-02T00:39:35;9.60;99.90
25554;DHT22;13446;50.926;5.332;2023-02-02T00:42:00;9.50;99.90
25554;DHT22;13446;50.926;5.332;2023-02-02T00:44:26;9.50;99.90
25554;DHT22;13446;50.926;5.332;2023-02-02T00:47:09;9.60;99.90
25554;DHT22;13446;50.926;5.332;2023-02-02T00:49:35;9.50;99.90
25554;DHT22;13446;50.926;5.332;2023-02-02T00:52:01;9.40;99.90
25554;DHT22;13446;50.926;5.332;2023-02-02T00:54:27;9.50;99.90
25554;DHT22;13446;50.926;5.332;2023-02-02T00:56:52;9.30;99.90
25554;DHT22;13446;50.926;5.332;2023-02-02T00:59:18;9.30;99.90
25554;DHT22;13446;50.926;5.332;2023-02-02T01:01:43;9.40;99.90
25554;DHT22;13446;50.926;5.332;2023-02-02T01:04:09;9.50;99.90
25554;DHT22;13446;50.926;5.332;2023-02-02T01:06:34;9.60;99.90
25554;DHT22;13446;50.926;5.332;2023-02-02T01:09:00;9.50;99.90
25554;DHT22;13446;50.926;5.332;2023-02-02T01:11:25;9.50;99.90
25554;DHT22;13446;50.926;5.332;2023-02-02T01:13:51;9.50;99.90
25554;DHT22;13446;50.926;5.332;2023-02-02T01:16:16;9.40;99.90
25554;DHT22;13446;50.926;5.332;2023-02-02T01:18:42;9.40;99.90
25554;DHT22;13446;50.926;5.332;2023-02-02T01:21:09;9.50;99.90
25554;DHT22;13446;50.926;5.332;2023-02-02T01:23:35;9.40;99.90
25554;DHT22;13446;50.926;5.332;2023-02-02T01:26:02;9.40;99.90
25554;DHT22;13446;50.926;5.332;2023-02-02T01:28:28;9.40;99.90
25554;DHT22;13446;50.926;5.332;2023-02-02T01:30:53;9.40;99.90
25554;DHT22;13446;50.926;5.332;2023-02-02T01:33:19;9.40;99.90
25554;DHT22;13446;50.926;5.332;2023-02-02T01:35:48;9.40;99.90
25554;DHT22;13446;50.926;5.332;2023-02-02T01:38:14;9.40;99.90
25554;DHT22;13446;50.926;5.332;2023-02-02T01:40:44;9.50;99.90
25554;DHT22;13446;50.926;5.332;2023-02-02T01:43:14;9.50;99.90
25554;DHT22;13446;50.926;5.332;2023-02-02T01:45:46;9.50;99.90
25554;DHT22;13446;50.926;5.332;2023-02-02T01:48:11;9.60;99.90
25554;DHT22;13446;50.926;5.332;2023-02-02T01:50:37;9.50;99.90
25554;DHT22;13446;50.926;5.332;2023-02-02T01:53:03;9.50;99.90
25554;DHT22;13446;50.926;5.332;2023-02-02T01:55:30;9.50;99.90
25554;DHT22;13446;50.926;5.332;2023-02-02T01:58:02;9.40;99.90
25554;DHT22;13446;50.926;5.332;2023-02-02T02:00:29;9.50;99.90
25554;DHT22;13446;50.926;5.332;2023-02-02T02:02:57;9.60;99.90
25554;DHT22;13446;50.926;5.332;2023-02-02T02:05:25;9.50;99.90
25554;DHT22;13446;50.926;5.332;2023-02-02T02:07:52;9.40;99.90
25554;DHT22;13446;50.926;5.332;2023-02-02T02:10:18;9.50;99.90
25554;DHT22;13446;50.926;5.332;2023-02-02T02:12:45;9.40;99.90
25554;DHT22;13446;50.926;5.332;2023-02-02T02:15:11;9.40;99.90
25554;DHT22;13446;50.926;5.332;2023-02-02T02:29:11;9.80;99.90
25554;DHT22;13446;50.926;5.332;2023-02-02T02:31:52;9.70;99.90
25554;DHT22;13446;50.926;5.332;2023-02-02T02:34:23;9.60;99.90
25554;DHT22;13446;50.926;5.332;2023-02-02T02:36:55;9.70;99.90
25554;DHT22;13446;50.926;5.332;2023-02-02T02:39:26;9.60;99.90
25554;DHT22;13446;50.926;5.332;2023-02-02T02:41:58;9.60;99.90
25554;DHT22;13446;50.926;5.332;2023-02-02T02:44:25;9.60;99.90
25554;DHT22;13446;50.926;5.332;2023-02-02T02:46:50;9.60;99.90
25554;DHT22;13446;50.926;5.332;2023-02-02T02:49:17;9.70;99.90
25554;DHT22;13446;50.926;5.332;2023-02-02T02:54:09;9.70;99.90
25554;DHT22;13446;50.926;5.332;2023-02-02T02:56:40;9.70;99.90
25554;DHT22;13446;50.926;5.332;2023-02-02T02:59:09;9.70;99.90
25554;DHT22;13446;50.926;5.332;2023-02-02T03:01:41;9.80;99.90
25554;DHT22;13446;50.926;5.332;2023-02-02T03:04:11;9.70;99.90
25554;DHT22;13446;50.926;5.332;2023-02-02T03:06:54;9.50;99.90
25554;DHT22;13446;50.926;5.332;2023-02-02T03:09:22;9.50;99.90
25554;DHT22;13446;50.926;5.332;2023-02-02T03:11:50;9.50;99.90
25554;DHT22;13446;50.926;5.332;2023-02-02T03:14:15;9.40;99.90
25554;DHT22;13446;50.926;5.332;2023-02-02T03:16:41;9.50;99.90
25554;DHT22;13446;50.926;5.332;2023-02-02T03:19:06;9.40;99.90
25554;DHT22;13446;50.926;5.332;2023-02-02T03:21:32;9.50;99.90
25554;DHT22;13446;50.926;5.332;2023-02-02T03:23:58;9.50;99.90
25554;DHT22;13446;50.926;5.332;2023-02-02T03:26:24;9.50;99.90
25554;DHT22;13446;50.926;5.332;2023-02-02T03:28:50;9.50;99.90
25554;DHT22;13446;50.926;5.332;2023-02-02T03:31:16;9.40;99.90
25554;DHT22;13446;50.926;5.332;2023-02-02T03:33:42;9.50;99.90
25554;DHT22;13446;50.926;5.332;2023-02-02T03:36:08;9.40;99.90
25554;DHT22;13446;50.926;5.332;2023-02-02T03:38:34;9.40;99.90
25554;DHT22;13446;50.926;5.332;2023-02-02T03:40:59;9.60;99.90
25554;DHT22;13446;50.926;5.332;2023-02-02T03:43:25;9.60;99.90
25554;DHT22;13446;50.926;5.332;2023-02-02T03:45:57;9.40;99.90
25554;DHT22;13446;50.926;5.332;2023-02-02T03:48:23;9.50;99.90
25554;DHT22;13446;50.926;5.332;2023-02-02T03:50:49;9.40;99.90
25554;DHT22;13446;50.926;5.332;2023-02-02T03:53:15;9.60;99.90
25554;DHT22;13446;50.926;5.332;2023-02-02T03:55:41;9.50;99.90
25554;DHT22;13446;50.926;5.332;2023-02-02T03:58:07;9.60;99.90
25554;DHT22;13446;50.926;5.332;2023-02-02T04:00:32;9.60;99.90
25554;DHT22;13446;50.926;5.332;2023-02-02T04:02:58;9.60;99.90
25554;DHT22;13446;50.926;5.332;2023-02-02T04:05:24;9.70;99.90
25554;DHT22;13446;50.926;5.332;2023-02-02T04:07:49;9.50;99.90
25554;DHT22;13446;50.926;5.332;2023-02-02T04:10:15;9.40;99.90
25554;DHT22;13446;50.926;5.332;2023-02-02T04:12:41;9.40;99.90
25554;DHT22;13446;50.926;5.332;2023-02-02T04:15:07;9.30;99.90
25554;DHT22;13446;50.926;5.332;2023-02-02T04:17:32;9.40;99.90
25554;DHT22;13446;50.926;5.332;2023-02-02T04:19:59;9.50;99.90
25554;DHT22;13446;50.926;5.332;2023-02-02T04:22:25;9.40;99.90
25554;DHT22;13446;50.926;5.332;2023-02-02T04:24:51;9.40;99.90
25554;DHT22;13446;50.926;5.332;2023-02-02T04:27:17;9.40;99.90
25554;DHT22;13446;50.926;5.332;2023-02-02T04:29:42;9.50;99.90
25554;DHT22;13446;50.926;5.332;2023-02-02T04:32:09;9.50;99.90
25554;DHT22;13446;50.926;5.332;2023-02-02T04:34:35;9.50;99.90
25554;DHT22;13446;50.926;5.332;2023-02-02T04:37:01;9.60;99.90
25554;DHT22;13446;50.926;5.332;2023-02-02T04:39:26;9.50;99.90
25554;DHT22;13446;50.926;5.332;2023-02-02T04:41:52;9.50;99.90
25554;DHT22;13446;50.926;5.332;2023-02-02T04:44:17;9.50;99.90
25554;DHT22;13446;50.926;5.332;2023-02-02T04:46:43;9.40;99.90
25554;DHT22;13446;50.926;5.332;2023-02-02T04:49:09;9.30;99.90
25554;DHT22;13446;50.926;5.332;2023-02-02T04:51:36;9.40;99.90
25554;DHT22;13446;50.926;5.332;2023-02-02T04:54:01;9.30;99.90
25554;DHT22;13446;50.926;5.332;2023-02-02T04:56:28;9.40;99.90
25554;DHT22;13446;50.926;5.332;2023-02-02T04:58:54;9.30;99.90
25554;DHT22;13446;50.926;5.332;2023-02-02T05:01:24;9.30;99.90
25554;DHT22;13446;50.926;5.332;2023-02-02T05:03:50;9.20;99.90
25554;DHT22;13446;50.926;5.332;2023-02-02T05:06:16;9.20;99.90
25554;DHT22;13446;50.926;5.332;2023-02-02T05:08:42;9.20;99.90
25554;DHT22;13446;50.926;5.332;2023-02-02T05:11:08;9.20;99.90
25554;DHT22;13446;50.926;5.332;2023-02-02T05:13:34;9.40;99.90
25554;DHT22;13446;50.926;5.332;2023-02-02T05:15:59;9.50;99.90
25554;DHT22;13446;50.926;5.332;2023-02-02T05:18:25;9.50;99.90
25554;DHT22;13446;50.926;5.332;2023-02-02T05:20:51;9.50;99.90
25554;DHT22;13446;50.926;5.332;2023-02-02T05:23:17;9.40;99.90
25554;DHT22;13446;50.926;5.332;2023-02-02T05:25:43;9.50;99.90
25554;DHT22;13446;50.926;5.332;2023-02-02T05:28:08;9.50;99.90
25554;DHT22;13446;50.926;5.332;2023-02-02T05:30:34;9.50;99.90
25554;DHT22;13446;50.926;5.332;2023-02-02T05:32:59;9.40;99.90
25554;DHT22;13446;50.926;5.332;2023-02-02T05:35:25;9.40;99.90
25554;DHT22;13446;50.926;5.332;2023-02-02T05:37:51;9.60;99.90
25554;DHT22;13446;50.926;5.332;2023-02-02T05:40:17;9.50;99.90
25554;DHT22;13446;50.926;5.332;2023-02-02T05:42:42;9.50;99.90
25554;DHT22;13446;50.926;5.332;2023-02-02T05:45:11;9.40;99.90
25554;DHT22;13446;50.926;5.332;2023-02-02T05:47:37;9.40;99.90
25554;DHT22;13446;50.926;5.332;2023-02-02T05:50:02;9.50;99.90
25554;DHT22;13446;50.926;5.332;2023-02-02T05:52:28;9.50;99.90
25554;DHT22;13446;50.926;5.332;2023-02-02T05:54:56;9.50;99.90
25554;DHT22;13446;50.926;5.332;2023-02-02T05:57:21;9.50;99.90
25554;DHT22;13446;50.926;5.332;2023-02-02T05:59:47;9.30;99.90
25554;DHT22;13446;50.926;5.332;2023-02-02T06:02:12;9.30;99.90
25554;DHT22;13446;50.926;5.332;2023-02-02T06:04:38;9.30;99.90
25554;DHT22;13446;50.926;5.332;2023-02-02T06:07:04;9.30;99.90
25554;DHT22;13446;50.926;5.332;2023-02-02T06:09:29;9.30;99.90
25554;DHT22;13446;50.926;5.332;2023-02-02T06:11:55;9.50;99.90
25554;DHT22;13446;50.926;5.332;2023-02-02T06:14:20;9.50;99.90
25554;DHT22;13446;50.926;5.332;2023-02-02T06:16:46;9.40;99.90
25554;DHT22;13446;50.926;5.332;2023-02-02T06:19:11;9.40;99.90
25554;DHT22;13446;50.926;5.332;2023-02-02T06:21:37;9.40;99.90
25554;DHT22;13446;50.926;5.332;2023-02-02T06:24:02;9.40;99.90
25554;DHT22;13446;50.926;5.332;2023-02-02T06:26:28;9.40;99.90
25554;DHT22;13446;50.926;5.332;2023-02-02T06:28:54;9.30;99.90
25554;DHT22;13446;50.926;5.332;2023-02-02T06:31:21;9.50;99.90
25554;DHT22;13446;50.926;5.332;2023-02-02T06:33:47;9.40;99.90
25554;DHT22;13446;50.926;5.332;2023-02-02T06:36:13;9.50;99.90
25554;DHT22;13446;50.926;5.332;2023-02-02T06:38:38;9.50;99.90
25554;DHT22;13446;50.926;5.332;2023-02-02T06:41:04;9.60;99.90
25554;DHT22;13446;50.926;5.332;2023-02-02T06:43:31;9.50;99.90
25554;DHT22;13446;50.926;5.332;2023-02-02T06:45:56;9.50;99.90
25554;DHT22;13446;50.926;5.332;2023-02-02T06:48:22;9.50;99.90
25554;DHT22;13446;50.926;5.332;2023-02-02T06:50:48;9.50;99.90
25554;DHT22;13446;50.926;5.332;2023-02-02T06:53:14;9.50;99.90
25554;DHT22;13446;50.926;5.332;2023-02-02T06:55:40;9.40;99.90
25554;DHT22;13446;50.926;5.332;2023-02-02T06:58:05;9.50;99.90
25554;DHT22;13446;50.926;5.332;2023-02-02T07:00:31;9.50;99.90
25554;DHT22;13446;50.926;5.332;2023-02-02T07:02:57;9.50;99.90
25554;DHT22;13446;50.926;5.332;2023-02-02T07:05:23;9.60;99.90
25554;DHT22;13446;50.926;5.332;2023-02-02T07:07:49;9.50;99.90
25554;DHT22;13446;50.926;5.332;2023-02-02T07:10:15;9.60;99.90
25554;DHT22;13446;50.926;5.332;2023-02-02T07:12:40;9.70;99.90
25554;DHT22;13446;50.926;5.332;2023-02-02T07:15:06;9.70;99.90
25554;DHT22;13446;50.926;5.332;2023-02-02T07:17:32;9.80;99.90
25554;DHT22;13446;50.926;5.332;2023-02-02T07:19:57;9.70;99.90
25554;DHT22;13446;50.926;5.332;2023-02-02T07:22:23;9.70;99.90
25554;DHT22;13446;50.926;5.332;2023-02-02T07:24:48;9.70;99.90
25554;DHT22;13446;50.926;5.332;2023-02-02T07:27:14;9.70;99.90
25554;DHT22;13446;50.926;5.332;2023-02-02T07:29:40;9.70;99.90
25554;DHT22;13446;50.926;5.332;2023-02-02T07:32:05;9.60;99.90
25554;DHT22;13446;50.926;5.332;2023-02-02T07:34:31;9.60;99.90
25554;DHT22;13446;50.926;5.332;2023-02-02T07:36:57;9.50;99.90
25554;DHT22;13446;50.926;5.332;2023-02-02T07:39:22;9.50;99.90
25554;DHT22;13446;50.926;5.332;2023-02-02T07:41:48;9.50;99.90
25554;DHT22;13446;50.926;5.332;2023-02-02T07:44:14;9.30;99.90
25554;DHT22;13446;50.926;5.332;2023-02-02T07:46:43;9.30;99.90
25554;DHT22;13446;50.926;5.332;2023-02-02T07:49:12;9.30;99.90
25554;DHT22;13446;50.926;5.332;2023-02-02T07:51:38;9.40;99.90
25554;DHT22;13446;50.926;5.332;2023-02-02T07:54:04;9.30;99.90
25554;DHT22;13446;50.926;5.332;2023-02-02T07:56:30;9.50;99.90
25554;DHT22;13446;50.926;5.332;2023-02-02T07:58:55;9.40;99.90
25554;DHT22;13446;50.926;5.332;2023-02-02T08:01:21;9.40;99.90
25554;DHT22;13446;50.926;5.332;2023-02-02T08:03:47;9.30;99.90
25554;DHT22;13446;50.926;5.332;2023-02-02T08:06:18;9.20;99.90
25554;DHT22;13446;50.926;5.332;2023-02-02T08:08:44;9.30;99.90
25554;DHT22;13446;50.926;5.332;2023-02-02T08:11:10;9.20;99.90
25554;DHT22;13446;50.926;5.332;2023-02-02T08:13:36;9.20;99.90
25554;DHT22;13446;50.926;5.332;2023-02-02T08:16:02;9.20;99.90
25554;DHT22;13446;50.926;5.332;2023-02-02T08:18:28;9.10;99.90
25554;DHT22;13446;50.926;5.332;2023-02-02T08:20:56;9.10;99.90
25554;DHT22;13446;50.926;5.332;2023-02-02T08:23:22;9.20;99.90
25554;DHT22;13446;50.926;5.332;2023-02-02T08:25:48;9.10;99.90
25554;DHT22;13446;50.926;5.332;2023-02-02T08:28:14;9.10;99.90
25554;DHT22;13446;50.926;5.332;2023-02-02T08:30:40;9.20;99.90
25554;DHT22;13446;50.926;5.332;2023-02-02T08:33:05;9.30;99.90
25554;DHT22;13446;50.926;5.332;2023-02-02T08:35:31;9.30;99.90
25554;DHT22;13446;50.926;5.332;2023-02-02T08:37:56;9.30;99.90
25554;DHT22;13446;50.926;5.332;2023-02-02T08:40:22;9.40;99.90
25554;DHT22;13446;50.926;5.332;2023-02-02T08:42:52;9.30;99.90
25554;DHT22;13446;50.926;5.332;2023-02-02T08:45:20;9.40;99.90
25554;DHT22;13446;50.926;5.332;2023-02-02T08:47:45;9.40;99.90
25554;DHT22;13446;50.926;5.332;2023-02-02T08:50:11;9.40;99.90
25554;DHT22;13446;50.926;5.332;2023-02-02T08:52:36;9.50;99.90
25554;DHT22;13446;50.926;5.332;2023-02-02T08:55:02;9.60;99.90
25554;DHT22;13446;50.926;5.332;2023-02-02T08:57:28;9.80;99.90
25554;DHT22;13446;50.926;5.332;2023-02-02T08:59:57;9.60;99.90
25554;DHT22;13446;50.926;5.332;2023-02-02T09:02:22;9.70;99.90
25554;DHT22;13446;50.926;5.332;2023-02-02T09:04:48;9.80;99.90
25554;DHT22;13446;50.926;5.332;2023-02-02T09:07:16;9.80;99.90
25554;DHT22;13446;50.926;5.332;2023-02-02T09:09:42;9.90;99.90
25554;DHT22;13446;50.926;5.332;2023-02-02T09:12:07;9.80;99.90
25554;DHT22;13446;50.926;5.332;2023-02-02T09:14:33;10.00;99.90
25554;DHT22;13446;50.926;5.332;2023-02-02T09:16:58;9.90;99.90
25554;DHT22;13446;50.926;5.332;2023-02-02T09:19:24;9.80;99.90
25554;DHT22;13446;50.926;5.332;2023-02-02T09:21:49;9.80;99.90
25554;DHT22;13446;50.926;5.332;2023-02-02T09:24:15;9.80;99.90
25554;DHT22;13446;50.926;5.332;2023-02-02T09:26:41;9.80;99.90
25554;DHT22;13446;50.926;5.332;2023-02-02T09:29:09;9.70;99.90
25554;DHT22;13446;50.926;5.332;2023-02-02T09:31:35;9.70;99.90
25554;DHT22;13446;50.926;5.332;2023-02-02T09:34:05;9.70;99.90
25554;DHT22;13446;50.926;5.332;2023-02-02T09:36:32;9.50;99.90
25554;DHT22;13446;50.926;5.332;2023-02-02T09:38:57;9.50;99.90
25554;DHT22;13446;50.926;5.332;2023-02-02T09:51:24;9.60;99.90
25554;DHT22;13446;50.926;5.332;2023-02-02T09:54:01;9.50;99.90
25554;DHT22;13446;50.926;5.332;2023-02-02T09:56:33;9.50;99.90
25554;DHT22;13446;50.926;5.332;2023-02-02T09:59:02;9.60;99.90
25554;DHT22;13446;50.926;5.332;2023-02-02T10:01:32;9.50;99.90
25554;DHT22;13446;50.926;5.332;2023-02-02T10:04:02;9.60;99.90
25554;DHT22;13446;50.926;5.332;2023-02-02T10:16:56;10.20;99.90
25554;DHT22;13446;50.926;5.332;2023-02-02T10:19:23;10.50;99.90
25554;DHT22;13446;50.926;5.332;2023-02-02T10:21:56;10.60;99.90
25554;DHT22;13446;50.926;5.332;2023-02-02T10:24:26;10.80;99.90
25554;DHT22;13446;50.926;5.332;2023-02-02T10:27:03;10.70;99.90
25554;DHT22;13446;50.926;5.332;2023-02-02T10:29:33;10.50;99.90
25554;DHT22;13446;50.926;5.332;2023-02-02T10:32:14;10.60;99.90
25554;DHT22;13446;50.926;5.332;2023-02-02T10:42:27;10.40;99.90
25554;DHT22;13446;50.926;5.332;2023-02-02T10:44:55;10.30;99.90
25554;DHT22;13446;50.926;5.332;2023-02-02T10:47:26;10.40;99.90
25554;DHT22;13446;50.926;5.332;2023-02-02T10:49:53;10.30;99.90
25554;DHT22;13446;50.926;5.332;2023-02-02T10:52:28;10.20;99.90
25554;DHT22;13446;50.926;5.332;2023-02-02T11:02:41;10.50;99.90
25554;DHT22;13446;50.926;5.332;2023-02-02T11:05:18;10.80;99.90
25554;DHT22;13446;50.926;5.332;2023-02-02T11:08:17;10.90;99.90
25554;DHT22;13446;50.926;5.332;2023-02-02T11:10:43;10.90;99.90
25554;DHT22;13446;50.926;5.332;2023-02-02T11:13:18;10.60;99.90
25554;DHT22;13446;50.926;5.332;2023-02-02T11:15:45;10.70;99.90
25554;DHT22;13446;50.926;5.332;2023-02-02T11:18:32;11.00;99.90
25554;DHT22;13446;50.926;5.332;2023-02-02T11:20:57;11.10;99.90
25554;DHT22;13446;50.926;5.332;2023-02-02T11:23:22;11.00;99.90
25554;DHT22;13446;50.926;5.332;2023-02-02T11:25:58;10.80;99.90
25554;DHT22;13446;50.926;5.332;2023-02-02T11:28:25;11.00;99.90
25554;DHT22;13446;50.926;5.332;2023-02-02T11:30:54;11.00;99.90
25554;DHT22;13446;50.926;5.332;2023-02-02T11:35:54;10.80;99.90
25554;DHT22;13446;50.926;5.332;2023-02-02T11:38:19;10.90;99.90
25554;DHT22;13446;50.926;5.332;2023-02-02T11:43:47;11.30;99.90
25554;DHT22;13446;50.926;5.332;2023-02-02T11:46:17;11.60;99.90
25554;DHT22;13446;50.926;5.332;2023-02-02T11:49:00;12.10;99.90
25554;DHT22;13446;50.926;5.332;2023-02-02T11:51:27;12.30;99.90
25554;DHT22;13446;50.926;5.332;2023-02-02T11:54:06;12.60;99.90
25554;DHT22;13446;50.926;5.332;2023-02-02T11:56:38;12.80;99.90
25554;DHT22;13446;50.926;5.332;2023-02-02T11:59:03;13.10;99.90
25554;DHT22;13446;50.926;5.332;2023-02-02T12:01:33;13.20;99.90
25554;DHT22;13446;50.926;5.332;2023-02-02T12:04:00;12.60;99.90
25554;DHT22;13446;50.926;5.332;2023-02-02T12:06:36;12.30;99.90
25554;DHT22;13446;50.926;5.332;2023-02-02T12:09:09;12.00;99.90
25554;DHT22;13446;50.926;5.332;2023-02-02T12:14:10;12.30;99.90
25554;DHT22;13446;50.926;5.332;2023-02-02T12:16:50;12.40;99.90
25554;DHT22;13446;50.926;5.332;2023-02-02T12:19:22;12.50;99.90
25554;DHT22;13446;50.926;5.332;2023-02-02T12:21:52;12.50;99.90
25554;DHT22;13446;50.926;5.332;2023-02-02T12:24:28;12.40;99.90
25554;DHT22;13446;50.926;5.332;2023-02-02T12:29:36;12.40;99.90
25554;DHT22;13446;50.926;5.332;2023-02-02T12:32:11;12.10;99.90
25554;DHT22;13446;50.926;5.332;2023-02-02T12:44:40;12.40;99.90
25554;DHT22;13446;50.926;5.332;2023-02-02T12:49:50;13.40;99.90
25554;DHT22;13446;50.926;5.332;2023-02-02T12:52:29;14.50;99.90
25554;DHT22;13446;50.926;5.332;2023-02-02T13:03:04;15.50;99.90
25554;DHT22;13446;50.926;5.332;2023-02-02T13:08:05;14.70;99.90
25554;DHT22;13446;50.926;5.332;2023-02-02T13:10:34;14.50;99.90
25554;DHT22;13446;50.926;5.332;2023-02-02T13:15:36;14.50;99.90
25554;DHT22;13446;50.926;5.332;2023-02-02T13:18:11;13.80;99.90
25554;DHT22;13446;50.926;5.332;2023-02-02T13:20:40;13.40;99.90
25554;DHT22;13446;50.926;5.332;2023-02-02T13:23:14;13.20;99.90
25554;DHT22;13446;50.926;5.332;2023-02-02T13:25:49;12.80;99.90
25554;DHT22;13446;50.926;5.332;2023-02-02T13:28:39;12.40;99.90
25554;DHT22;13446;50.926;5.332;2023-02-02T13:31:03;12.20;99.90
25554;DHT22;13446;50.926;5.332;2023-02-02T13:33:31;11.90;99.90
25554;DHT22;13446;50.926;5.332;2023-02-02T13:36:02;12.30;99.90
25554;DHT22;13446;50.926;5.332;2023-02-02T13:38:30;12.60;99.90
25554;DHT22;13446;50.926;5.332;2023-02-02T13:40:59;12.80;99.90
25554;DHT22;13446;50.926;5.332;2023-02-02T13:43:33;13.30;99.90
25554;DHT22;13446;50.926;5.332;2023-02-02T13:46:09;13.90;99.90
25554;DHT22;13446;50.926;5.332;2023-02-02T13:51:30;13.90;99.90
25554;DHT22;13446;50.926;5.332;2023-02-02T13:56:37;14.00;99.90
25554;DHT22;13446;50.926;5.332;2023-02-02T13:59:07;13.60;99.90
25554;DHT22;13446;50.926;5.332;2023-02-02T14:01:39;13.70;99.90
25554;DHT22;13446;50.926;5.332;2023-02-02T14:04:15;13.90;99.90
25554;DHT22;13446;50.926;5.332;2023-02-02T14:06:52;13.70;99.90
25554;DHT22;13446;50.926;5.332;2023-02-02T14:09:21;13.60;99.90
25554;DHT22;13446;50.926;5.332;2023-02-02T14:12:00;13.40;99.90
25554;DHT22;13446;50.926;5.332;2023-02-02T14:14:26;13.10;99.90
25554;DHT22;13446;50.926;5.332;2023-02-02T14:17:04;13.30;99.90
25554;DHT22;13446;50.926;5.332;2023-02-02T14:21:59;13.00;99.90
25554;DHT22;13446;50.926;5.332;2023-02-02T14:26:55;13.10;99.90
25554;DHT22;13446;50.926;5.332;2023-02-02T14:34:38;13.00;99.90
25554;DHT22;13446;50.926;5.332;2023-02-02T14:42:35;12.20;99.90
25554;DHT22;13446;50.926;5.332;2023-02-02T14:45:28;12.20;99.90
25554;DHT22;13446;50.926;5.332;2023-02-02T14:50:22;12.30;99.90
25554;DHT22;13446;50.926;5.332;2023-02-02T14:52:55;12.30;99.90
25554;DHT22;13446;50.926;5.332;2023-02-02T14:55:21;12.30;99.90
25554;DHT22;13446;50.926;5.332;2023-02-02T14:58:21;12.00;99.90
25554;DHT22;13446;50.926;5.332;2023-02-02T15:00:39;11.90;99.90
25554;DHT22;13446;50.926;5.332;2023-02-02T15:05:48;11.50;99.90
25554;DHT22;13446;50.926;5.332;2023-02-02T15:08:26;11.70;99.90
25554;DHT22;13446;50.926;5.332;2023-02-02T15:11:10;11.80;99.90
25554;DHT22;13446;50.926;5.332;2023-02-02T15:13:58;11.90;99.90
25554;DHT22;13446;50.926;5.332;2023-02-02T15:16:31;12.00;99.90
25554;DHT22;13446;50.926;5.332;2023-02-02T15:19:11;12.20;99.90
25554;DHT22;13446;50.926;5.332;2023-02-02T15:21:39;12.00;99.90
25554;DHT22;13446;50.926;5.332;2023-02-02T15:24:14;12.00;99.90
25554;DHT22;13446;50.926;5.332;2023-02-02T15:26:43;12.00;99.90
25554;DHT22;13446;50.926;5.332;2023-02-02T15:29:14;11.80;99.90
25554;DHT22;13446;50.926;5.332;2023-02-02T15:34:15;11.60;99.90
25554;DHT22;13446;50.926;5.332;2023-02-02T15:36:42;11.70;99.90
25554;DHT22;13446;50.926;5.332;2023-02-02T15:39:10;11.60;99.90
25554;DHT22;13446;50.926;5.332;2023-02-02T15:41:41;11.50;99.90
25554;DHT22;13446;50.926;5.332;2023-02-02T15:44:19;11.20;99.90
25554;DHT22;13446;50.926;5.332;2023-02-02T15:46:47;11.20;99.90
25554;DHT22;13446;50.926;5.332;2023-02-02T15:51:42;11.20;99.90
25554;DHT22;13446;50.926;5.332;2023-02-02T15:54:19;11.20;99.90
25554;DHT22;13446;50.926;5.332;2023-02-02T15:56:46;11.10;99.90
25554;DHT22;13446;50.926;5.332;2023-02-02T15:59:19;11.10;99.90
25554;DHT22;13446;50.926;5.332;2023-02-02T16:01:46;11.30;99.90
25554;DHT22;13446;50.926;5.332;2023-02-02T16:04:24;11.60;99.90
25554;DHT22;13446;50.926;5.332;2023-02-02T16:06:50;11.80;99.90
25554;DHT22;13446;50.926;5.332;2023-02-02T16:09:21;11.60;99.90
25554;DHT22;13446;50.926;5.332;2023-02-02T16:11:48;11.80;99.90
25554;DHT22;13446;50.926;5.332;2023-02-02T16:14:15;11.80;99.90
25554;DHT22;13446;50.926;5.332;2023-02-02T16:16:43;11.60;99.90
25554;DHT22;13446;50.926;5.332;2023-02-02T16:19:19;11.60;99.90
25554;DHT22;13446;50.926;5.332;2023-02-02T16:21:47;11.40;99.90
25554;DHT22;13446;50.926;5.332;2023-02-02T16:24:19;11.30;99.90
25554;DHT22;13446;50.926;5.332;2023-02-02T16:26:45;11.40;99.90
25554;DHT22;13446;50.926;5.332;2023-02-02T16:29:13;11.60;99.90
25554;DHT22;13446;50.926;5.332;2023-02-02T16:31:44;11.60;99.90
25554;DHT22;13446;50.926;5.332;2023-02-02T16:34:44;11.50;99.90
25554;DHT22;13446;50.926;5.332;2023-02-02T16:37:03;11.40;99.90
25554;DHT22;13446;50.926;5.332;2023-02-02T16:39:29;11.60;99.90
25554;DHT22;13446;50.926;5.332;2023-02-02T16:41:54;11.60;99.90
25554;DHT22;13446;50.926;5.332;2023-02-02T16:44:39;11.60;99.90
25554;DHT22;13446;50.926;5.332;2023-02-02T16:47:29;11.60;99.90
25554;DHT22;13446;50.926;5.332;2023-02-02T16:50:15;11.60;99.90
25554;DHT22;13446;50.926;5.332;2023-02-02T16:52:47;11.40;99.90
25554;DHT22;13446;50.926;5.332;2023-02-02T16:55:15;11.40;99.90
25554;DHT22;13446;50.926;5.332;2023-02-02T16:57:41;11.50;99.90
25554;DHT22;13446;50.926;5.332;2023-02-02T17:00:16;11.40;99.90
25554;DHT22;13446;50.926;5.332;2023-02-02T17:02:43;11.40;99.90
25554;DHT22;13446;50.926;5.332;2023-02-02T17:05:20;11.50;99.90
25554;DHT22;13446;50.926;5.332;2023-02-02T17:07:47;11.50;99.90
25554;DHT22;13446;50.926;5.332;2023-02-02T17:12:42;11.50;99.90
25554;DHT22;13446;50.926;5.332;2023-02-02T17:17:43;11.60;99.90
25554;DHT22;13446;50.926;5.332;2023-02-02T17:20:09;11.70;99.90
25554;DHT22;13446;50.926;5.332;2023-02-02T17:22:42;11.80;99.90
25554;DHT22;13446;50.926;5.332;2023-02-02T17:25:12;11.90;99.90
25554;DHT22;13446;50.926;5.332;2023-02-02T17:27:38;12.00;99.90
25554;DHT22;13446;50.926;5.332;2023-02-02T17:30:04;11.90;99.90
25554;DHT22;13446;50.926;5.332;2023-02-02T17:32:30;11.80;99.90
25554;DHT22;13446;50.926;5.332;2023-02-02T17:34:55;11.50;99.90
25554;DHT22;13446;50.926;5.332;2023-02-02T17:37:21;11.50;99.90
25554;DHT22;13446;50.926;5.332;2023-02-02T17:39:47;11.50;99.90
25554;DHT22;13446;50.926;5.332;2023-02-02T17:42:24;11.50;99.90
25554;DHT22;13446;50.926;5.332;2023-02-02T17:44:50;11.60;99.90
25554;DHT22;13446;50.926;5.332;2023-02-02T17:47:16;11.60;99.90
25554;DHT22;13446;50.926;5.332;2023-02-02T17:49:41;11.60;99.90